createdAt,value
2022-07-29T00:00:50.881Z,33.95
2022-07-29T00:02:54.772Z,33.88
2022-07-29T00:04:58.527Z,34.42
2022-07-29T00:07:03.096Z,34.53
2022-07-29T00:09:07.291Z,35.09
2022-07-29T00:11:11.033Z,34.86
2022-07-29T00:13:15.110Z,35.52
2022-07-29T00:15:18.758Z,37.30
2022-07-29T00:17:22.906Z,38.52
2022-07-29T00:19:26.983Z,40.05
2022-07-29T00:21:31.390Z,41.89
2022-07-29T00:23:36.948Z,43.41
2022-07-29T00:26:02.446Z,44.42
2022-07-29T00:28:06.950Z,46.44
2022-07-29T00:30:11.281Z,47.33
2022-07-29T00:32:15.281Z,48.20
2022-07-29T00:34:37.658Z,49.59
2022-07-29T00:36:43.508Z,50.17
2022-07-29T00:38:48.084Z,51.12
2022-07-29T00:40:52.217Z,54.54
2022-07-29T00:42:56.127Z,57.35
2022-07-29T00:45:02.450Z,58.90
2022-07-29T00:47:06.807Z,61.90
2022-07-29T00:49:11.007Z,61.70
2022-07-29T00:51:15.046Z,62.44
2022-07-29T00:53:19.025Z,62.20
2022-07-29T00:55:22.844Z,62.04
2022-07-29T00:57:29.785Z,62.19
2022-07-29T00:59:38.853Z,63.66
2022-07-29T01:01:42.749Z,64.05
2022-07-29T01:03:46.659Z,65.27
2022-07-29T01:05:52.510Z,64.97
2022-07-29T01:07:57.517Z,66.72
2022-07-29T01:10:03.474Z,67.02
2022-07-29T01:12:09.015Z,67.03
2022-07-29T01:14:13.748Z,66.81
2022-07-29T01:16:28.422Z,66.85
2022-07-29T01:18:44.187Z,67.28
2022-07-29T01:20:48.790Z,68.96
2022-07-29T01:23:02.544Z,67.73
2022-07-29T01:25:06.677Z,68.78
2022-07-29T01:27:10.774Z,69.43
2022-07-29T01:29:38.860Z,68.36
2022-07-29T01:31:58.584Z,69.39
2022-07-29T01:34:06.731Z,68.76
2022-07-29T01:36:15.626Z,68.50
2022-07-29T01:38:27.761Z,69.03
2022-07-29T01:40:35.477Z,68.42
2022-07-29T01:42:46.320Z,69.08
2022-07-29T01:44:58.352Z,69.46
2022-07-29T01:47:04.543Z,70.38
2022-07-29T01:49:14.338Z,69.80
2022-07-29T01:51:23.127Z,70.98
2022-07-29T01:53:37.723Z,72.21
2022-07-29T01:55:44.638Z,72.18
2022-07-29T01:57:51.752Z,72.27
2022-07-29T01:59:56.992Z,73.50
2022-07-29T02:02:01.776Z,73.18
2022-07-29T02:04:08.313Z,72.75
2022-07-29T02:06:13.858Z,73.40
2022-07-29T02:08:20.757Z,74.21
2022-07-29T02:10:26.366Z,74.32
2022-07-29T02:12:31.599Z,75.51
2022-07-29T02:14:40.758Z,76.18
2022-07-29T02:16:45.422Z,77.74
2022-07-29T02:18:50.556Z,77.54
2022-07-29T02:20:57.387Z,79.09
2022-07-29T02:23:02.854Z,78.61
2022-07-29T02:25:14.889Z,79.60
2022-07-29T02:27:20.180Z,78.46
2022-07-29T02:29:25.032Z,78.02
2022-07-29T02:31:36.436Z,78.65
2022-07-29T02:33:44.070Z,78.27
2022-07-29T02:35:48.940Z,77.52
2022-07-29T02:38:12.745Z,78.03
2022-07-29T02:40:20.800Z,76.55
2022-07-29T02:42:26.498Z,76.99
2022-07-29T02:44:34.560Z,75.04
2022-07-29T02:46:45.984Z,76.23
2022-07-29T02:48:53.420Z,76.24
2022-07-29T02:51:04.085Z,75.50
2022-07-29T02:53:25.280Z,75.57
2022-07-29T02:55:33.227Z,74.44
2022-07-29T02:57:55.034Z,75.36
2022-07-29T03:00:01.430Z,76.28
2022-07-29T03:02:06.948Z,77.27
2022-07-29T03:04:12.267Z,77.19
2022-07-29T03:06:30.890Z,77.31
2022-07-29T03:08:43.232Z,78.28
2022-07-29T03:10:49.221Z,78.17
2022-07-29T03:12:52.979Z,77.87
2022-07-29T03:14:58.042Z,78.13
2022-07-29T03:17:05.535Z,78.45
2022-07-29T03:19:10.797Z,80.15
2022-07-29T03:21:17.442Z,82.71
2022-07-29T03:23:22.393Z,89.89
2022-07-29T04:02:28.666Z,100.00
2022-07-29T04:04:37.555Z,100.00
2022-07-29T04:06:46.686Z,100.00
2022-07-29T04:08:53.654Z,100.00
2022-07-29T04:10:58.519Z,100.00
2022-07-29T04:13:04.266Z,100.00
2022-07-29T04:15:11.331Z,100.00
2022-07-29T04:17:15.595Z,100.00
2022-07-29T04:19:20.495Z,100.00
2022-07-29T04:21:25.415Z,42.25
2022-07-29T04:23:29.814Z,100.00
2022-07-29T04:25:33.616Z,100.00
2022-07-29T04:27:38.031Z,100.00
2022-07-29T04:29:56.611Z,100.00
2022-07-29T04:32:01.601Z,100.00
2022-07-29T04:34:05.689Z,100.00
2022-07-29T04:36:28.803Z,100.00
2022-07-29T04:38:33.344Z,100.00
2022-07-29T04:40:38.666Z,100.00
2022-07-29T04:42:46.400Z,100.00
2022-07-29T04:44:51.043Z,100.00
2022-07-29T04:46:55.702Z,100.00
2022-07-29T04:49:00.622Z,100.00
2022-07-29T04:51:04.894Z,100.00
2022-07-29T04:53:09.952Z,100.00
2022-07-29T04:55:13.966Z,100.00
2022-07-29T04:57:17.608Z,100.00
2022-07-29T04:59:24.575Z,100.00
2022-07-29T05:01:28.362Z,100.00
2022-07-29T05:03:32.130Z,100.00
2022-07-29T05:05:36.118Z,100.00
2022-07-29T05:07:40.677Z,100.00
2022-07-29T05:09:44.389Z,100.00
2022-07-29T05:12:00.451Z,100.00
2022-07-29T05:14:04.958Z,100.00
2022-07-29T05:16:10.388Z,100.00
2022-07-29T05:18:14.777Z,100.00
2022-07-29T05:20:18.413Z,100.00
2022-07-29T05:22:22.525Z,100.00
2022-07-29T05:24:26.016Z,100.00
2022-07-29T05:26:30.447Z,100.00
2022-07-29T05:28:37.215Z,100.00
2022-07-29T05:30:41.019Z,100.00
2022-07-29T05:32:45.057Z,100.00
2022-07-29T05:34:51.171Z,100.00
2022-07-29T05:36:55.536Z,100.00
2022-07-29T05:39:00.470Z,100.00
2022-07-29T05:41:04.512Z,100.00
2022-07-29T05:43:07.938Z,100.00
2022-07-29T05:45:12.169Z,100.00
2022-07-29T05:47:15.775Z,100.00
2022-07-29T05:49:26.908Z,100.00
2022-07-29T05:51:32.108Z,100.00
2022-07-29T05:53:35.886Z,100.00
2022-07-29T05:55:39.672Z,100.00
2022-07-29T05:57:46.632Z,100.00
2022-07-29T05:59:58.453Z,100.00
2022-07-29T06:02:02.212Z,100.00
2022-07-29T06:04:05.782Z,100.00
2022-07-29T06:06:10.297Z,100.00
2022-07-29T06:08:14.130Z,100.00
2022-07-29T06:10:20.547Z,100.00
2022-07-29T06:12:28.305Z,100.00
2022-07-29T06:14:32.191Z,100.00
2022-07-29T06:16:36.419Z,100.00
2022-07-29T06:18:40.210Z,100.00
2022-07-29T06:20:43.806Z,100.00
2022-07-29T06:22:47.702Z,100.00
2022-07-29T06:24:51.067Z,100.00
2022-07-29T06:27:00.737Z,100.00
2022-07-29T06:29:04.333Z,100.00
2022-07-29T06:31:08.291Z,100.00
2022-07-29T06:33:18.511Z,100.00
2022-07-29T06:35:39.149Z,100.00
2022-07-29T06:37:45.811Z,100.00
2022-07-29T06:40:12.441Z,100.00
2022-07-29T06:42:16.516Z,100.00
2022-07-29T06:44:21.081Z,100.00
2022-07-29T06:46:24.922Z,100.00
2022-07-29T06:48:28.731Z,100.00
2022-07-29T06:50:32.364Z,100.00
2022-07-29T06:52:35.881Z,100.00
2022-07-29T06:54:40.800Z,100.00
2022-07-29T06:56:45.317Z,100.00
2022-07-29T06:58:49.286Z,100.00
2022-07-29T07:00:52.897Z,100.00
2022-07-29T07:02:56.892Z,100.00
2022-07-29T07:05:00.979Z,100.00
2022-07-29T07:07:08.851Z,100.00
2022-07-29T07:09:16.309Z,100.00
2022-07-29T07:11:22.802Z,100.00
2022-07-29T07:13:26.597Z,100.00
2022-07-29T07:15:39.035Z,100.00
2022-07-29T07:17:43.598Z,100.00
2022-07-29T07:19:50.361Z,100.00
2022-07-29T07:21:57.855Z,100.00
2022-07-29T07:24:01.779Z,100.00
2022-07-29T07:26:05.431Z,100.00
2022-07-29T07:28:08.902Z,100.00
2022-07-29T07:30:12.710Z,100.00
2022-07-29T07:32:18.301Z,100.00
2022-07-29T07:34:28.868Z,100.00
2022-07-29T07:36:33.519Z,100.00
2022-07-29T07:38:37.488Z,100.00
2022-07-29T07:40:41.105Z,100.00
2022-07-29T07:43:03.102Z,100.00
2022-07-29T07:45:15.952Z,100.00
2022-07-29T07:47:22.183Z,100.00
2022-07-29T07:49:28.254Z,100.00
2022-07-29T07:51:32.223Z,100.00
2022-07-29T07:53:36.064Z,100.00
2022-07-29T07:58:06.999Z,100.00
2022-07-29T08:00:10.770Z,100.00
2022-07-29T08:02:17.144Z,100.00
2022-07-29T08:04:26.616Z,100.00
2022-07-29T08:06:31.816Z,100.00
2022-07-29T08:08:35.662Z,100.00
2022-07-29T08:10:54.612Z,100.00
2022-07-29T08:12:58.560Z,100.00
2022-07-29T08:15:02.011Z,100.00
2022-07-29T08:17:06.027Z,100.00
2022-07-29T08:19:09.966Z,100.00
2022-07-29T08:21:15.117Z,100.00
2022-07-29T08:23:20.952Z,100.00
2022-07-29T08:25:25.049Z,100.00
2022-07-29T08:27:47.799Z,100.00
2022-07-29T08:29:51.483Z,100.00
2022-07-29T08:31:55.490Z,100.00
2022-07-29T08:34:01.746Z,100.00
2022-07-29T08:36:05.653Z,100.00
2022-07-29T08:38:09.104Z,100.00
2022-07-29T08:40:13.471Z,100.00
2022-07-29T08:42:18.686Z,100.00
2022-07-29T08:44:30.492Z,100.00
2022-07-29T08:46:35.239Z,100.00
2022-07-29T08:48:39.058Z,100.00
2022-07-29T08:50:43.529Z,100.00
2022-07-29T08:52:53.530Z,100.00
2022-07-29T08:54:59.282Z,100.00
2022-07-29T08:57:03.322Z,100.00
2022-07-29T08:59:10.964Z,100.00
2022-07-29T09:01:19.558Z,100.00
2022-07-29T09:03:29.708Z,100.00
2022-07-29T09:05:39.638Z,100.00
2022-07-29T09:07:49.963Z,100.00
2022-07-29T09:09:53.652Z,100.00
2022-07-29T09:12:00.856Z,100.00
2022-07-29T09:14:04.225Z,100.00
2022-07-29T09:16:09.507Z,100.00
2022-07-29T09:18:19.471Z,100.00
2022-07-29T09:20:52.241Z,100.00
2022-07-29T09:22:55.829Z,100.00
2022-07-29T09:24:59.558Z,100.00
2022-07-29T09:27:03.802Z,100.00
2022-07-29T09:29:17.641Z,100.00
2022-07-29T09:31:28.658Z,100.00
2022-07-29T09:33:41.449Z,100.00
2022-07-29T09:35:56.574Z,100.00
2022-07-29T09:38:11.856Z,100.00
2022-07-29T09:40:17.850Z,100.00
2022-07-29T09:42:30.444Z,100.00
2022-07-29T09:44:51.146Z,100.00
2022-07-29T09:47:08.326Z,100.00
2022-07-29T09:49:16.722Z,100.00
2022-07-29T09:51:25.526Z,100.00
2022-07-29T09:53:37.878Z,100.00
2022-07-29T09:55:49.290Z,100.00
2022-07-29T09:57:53.309Z,100.00
2022-07-29T10:00:05.495Z,100.00
2022-07-29T10:02:20.260Z,100.00
2022-07-29T10:04:26.749Z,100.00
2022-07-29T10:06:30.412Z,100.00
2022-07-29T10:08:34.316Z,100.00
2022-07-29T10:10:42.031Z,100.00
2022-07-29T10:12:54.092Z,100.00
2022-07-29T10:14:57.753Z,100.00
2022-07-29T10:17:02.895Z,100.00
2022-07-29T10:19:06.338Z,100.00
2022-07-29T10:21:35.600Z,100.00
2022-07-29T10:23:47.009Z,100.00
2022-07-29T10:25:53.766Z,100.00
2022-07-29T10:27:57.671Z,100.00
2022-07-29T10:30:01.643Z,100.00
2022-07-29T10:32:12.377Z,100.00
2022-07-29T10:34:34.703Z,100.00
2022-07-29T10:36:41.527Z,100.00
2022-07-29T10:38:59.774Z,100.00
2022-07-29T10:41:29.095Z,100.00
2022-07-29T10:43:42.456Z,100.00
2022-07-29T10:45:48.342Z,100.00
2022-07-29T10:48:05.088Z,100.00
2022-07-29T10:50:16.956Z,100.00
2022-07-29T10:52:26.617Z,100.00
2022-07-29T10:54:49.715Z,100.00
2022-07-29T10:56:53.626Z,100.00
2022-07-29T11:01:50.346Z,100.00
2022-07-29T11:03:58.557Z,100.00
2022-07-29T11:06:03.384Z,100.00
2022-07-29T11:08:20.146Z,100.00
2022-07-29T11:10:27.015Z,100.00
2022-07-29T11:12:41.829Z,100.00
2022-07-29T11:14:56.848Z,100.00
2022-07-29T11:17:06.992Z,100.00
2022-07-29T11:19:15.136Z,100.00
2022-07-29T11:21:53.888Z,100.00
2022-07-29T11:24:14.859Z,100.00
2022-07-29T11:26:32.581Z,100.00
2022-07-29T11:28:37.692Z,100.00
2022-07-29T11:30:53.869Z,100.00
2022-07-29T11:32:57.609Z,100.00
2022-07-29T11:35:37.154Z,100.00
2022-07-29T11:37:42.550Z,100.00
2022-07-29T11:40:01.864Z,100.00
2022-07-29T11:42:28.297Z,100.00
2022-07-29T11:45:08.942Z,100.00
2022-07-29T11:47:24.743Z,100.00
2022-07-29T11:49:33.315Z,100.00
2022-07-29T11:51:48.274Z,100.00
2022-07-29T11:53:52.923Z,100.00
2022-07-29T11:55:58.621Z,100.00
2022-07-29T11:58:03.833Z,100.00
2022-07-29T12:02:48.548Z,100.00
2022-07-29T12:04:53.616Z,100.00
2022-07-29T12:07:00.484Z,100.00
2022-07-29T12:07:02.431Z,100.00
2022-07-29T12:09:14.698Z,100.00
2022-07-29T12:11:23.485Z,100.00
2022-07-29T12:13:37.032Z,100.00
2022-07-29T12:15:45.850Z,100.00
2022-07-29T12:17:51.051Z,100.00
2022-07-29T12:19:59.398Z,100.00
2022-07-29T12:22:05.095Z,100.00
2022-07-29T12:24:09.861Z,100.00
2022-07-29T12:26:25.491Z,100.00
2022-07-29T12:28:29.591Z,100.00
2022-07-29T12:30:40.918Z,100.00
2022-07-29T12:32:50.886Z,100.00
2022-07-29T12:34:58.187Z,100.00
2022-07-29T12:37:03.260Z,100.00
2022-07-29T12:39:07.322Z,100.00
2022-07-29T12:41:11.309Z,100.00
2022-07-29T12:43:17.363Z,100.00
2022-07-29T12:45:30.501Z,100.00
2022-07-29T12:47:34.304Z,100.00
2022-07-29T12:49:38.370Z,100.00
2022-07-29T12:51:43.453Z,100.00
2022-07-29T12:54:05.298Z,100.00
2022-07-29T12:58:43.864Z,100.00
2022-07-29T13:00:50.317Z,100.00
2022-07-29T13:02:58.767Z,100.00
2022-07-29T13:05:03.310Z,100.00
2022-07-29T13:07:10.430Z,100.00
2022-07-29T13:09:18.235Z,100.00
2022-07-29T13:11:35.279Z,100.00
2022-07-29T13:14:05.970Z,100.00
2022-07-29T13:16:10.976Z,100.00
2022-07-29T13:18:36.726Z,100.00
2022-07-29T13:21:15.165Z,100.00
2022-07-29T13:23:18.899Z,100.00
2022-07-29T13:25:30.794Z,100.00
2022-07-29T13:27:35.654Z,100.00
2022-07-29T13:29:42.179Z,100.00
2022-07-29T13:31:46.306Z,100.00
2022-07-29T13:33:50.092Z,100.00
2022-07-29T13:35:53.926Z,100.00
2022-07-29T13:37:57.603Z,100.00
2022-07-29T13:40:01.476Z,100.00
2022-07-29T13:42:07.917Z,100.00
2022-07-29T13:44:14.525Z,100.00
2022-07-29T13:46:18.372Z,100.00
2022-07-29T13:48:22.643Z,100.00
2022-07-29T13:50:26.427Z,100.00
2022-07-29T13:52:30.154Z,100.00
2022-07-29T13:54:35.860Z,100.00
2022-07-29T13:56:42.375Z,100.00
2022-07-29T13:58:45.961Z,100.00
2022-07-29T14:00:49.661Z,100.00
2022-07-29T14:02:53.438Z,100.00
2022-07-29T14:04:57.858Z,100.00
2022-07-29T14:07:03.638Z,100.00
2022-07-29T14:09:13.680Z,100.00
2022-07-29T14:11:17.519Z,100.00
2022-07-29T14:13:25.144Z,100.00
2022-07-29T14:15:29.792Z,100.00
2022-07-29T14:17:33.385Z,100.00
2022-07-29T14:19:40.606Z,100.00
2022-07-29T14:21:44.086Z,100.00
2022-07-29T14:23:49.842Z,100.00
2022-07-29T14:25:57.999Z,100.00
2022-07-29T14:28:01.761Z,100.00
2022-07-29T14:30:05.544Z,100.00
2022-07-29T14:32:09.621Z,100.00
2022-07-29T14:34:13.556Z,100.00
2022-07-29T14:36:17.306Z,100.00
2022-07-29T14:38:20.880Z,100.00
2022-07-29T14:40:24.551Z,100.00
2022-07-29T14:42:28.579Z,100.00
2022-07-29T14:44:33.159Z,100.00
2022-07-29T14:46:36.732Z,100.00
2022-07-29T14:48:40.368Z,100.00
2022-07-29T14:50:43.946Z,100.00
2022-07-29T14:52:47.736Z,100.00
2022-07-29T14:54:58.787Z,100.00
2022-07-29T14:57:02.909Z,100.00
2022-07-29T14:59:31.493Z,100.00
2022-07-29T15:01:35.204Z,100.00
2022-07-29T15:03:39.278Z,100.00
2022-07-29T15:05:43.387Z,100.00
2022-07-29T15:07:47.208Z,100.00
2022-07-29T15:09:51.046Z,100.00
2022-07-29T15:11:56.076Z,100.00
2022-07-29T15:14:02.470Z,100.00
2022-07-29T15:16:07.864Z,100.00
2022-07-29T15:18:11.752Z,100.00
2022-07-29T15:20:15.717Z,100.00
2022-07-29T15:22:19.796Z,100.00
2022-07-29T15:24:23.541Z,100.00
2022-07-29T15:26:27.509Z,100.00
2022-07-29T15:28:34.156Z,100.00
2022-07-29T15:30:42.618Z,100.00
2022-07-29T15:32:47.315Z,100.00
2022-07-29T15:34:51.363Z,100.00
2022-07-29T15:36:55.261Z,100.00
2022-07-29T15:38:59.370Z,100.00
2022-07-29T15:41:03.219Z,100.00
2022-07-29T15:43:07.600Z,100.00
2022-07-29T15:45:11.375Z,100.00
2022-07-29T15:47:15.108Z,100.00
2022-07-29T15:49:20.005Z,100.00
2022-07-29T15:51:26.573Z,100.00
2022-07-29T15:53:30.627Z,100.00
2022-07-29T15:55:34.342Z,100.00
2022-07-29T15:57:38.249Z,100.00
2022-07-29T15:59:42.407Z,100.00
2022-07-29T16:01:45.897Z,100.00
2022-07-29T16:03:49.793Z,100.00
2022-07-29T16:05:53.390Z,100.00
2022-07-29T16:07:57.266Z,100.00
2022-07-29T16:10:01.167Z,100.00
2022-07-29T16:12:11.112Z,100.00
2022-07-29T16:14:19.594Z,100.00
2022-07-29T16:16:23.712Z,100.00
2022-07-29T16:18:29.929Z,100.00
2022-07-29T16:20:34.228Z,100.00
2022-07-29T16:22:38.052Z,100.00
2022-07-29T16:24:42.177Z,100.00
2022-07-29T16:26:47.541Z,100.00
2022-07-29T16:28:51.518Z,100.00
2022-07-29T16:30:55.997Z,100.00
2022-07-29T16:32:59.921Z,100.00
2022-07-29T16:35:06.107Z,100.00
2022-07-29T16:37:09.937Z,100.00
2022-07-29T16:39:15.062Z,100.00
2022-07-29T16:41:20.686Z,100.00
2022-07-29T16:43:24.734Z,100.00
2022-07-29T16:45:31.486Z,100.00
2022-07-29T16:47:49.998Z,100.00
2022-07-29T16:49:54.184Z,100.00
2022-07-29T16:51:57.938Z,100.00
2022-07-29T16:54:03.575Z,100.00
2022-07-29T16:56:07.345Z,100.00
2022-07-29T16:58:15.077Z,100.00
2022-07-29T17:00:18.948Z,100.00
2022-07-29T17:02:23.292Z,100.00
2022-07-29T17:04:27.501Z,100.00
2022-07-29T17:06:31.574Z,100.00
2022-07-29T17:08:38.561Z,100.00
2022-07-29T17:10:43.459Z,100.00
2022-07-29T17:12:47.133Z,100.00
2022-07-29T17:14:50.669Z,100.00
2022-07-29T17:17:00.278Z,100.00
2022-07-29T17:19:05.781Z,100.00
2022-07-29T17:21:09.474Z,100.00
2022-07-29T17:23:13.433Z,100.00
2022-07-29T17:25:20.507Z,100.00
2022-07-29T17:27:25.365Z,100.00
2022-07-29T17:29:29.287Z,100.00
2022-07-29T17:31:33.124Z,100.00
2022-07-29T17:33:37.203Z,100.00
2022-07-29T17:35:59.611Z,100.00
2022-07-29T17:38:03.518Z,100.00
2022-07-29T17:40:07.641Z,100.00
2022-07-29T17:42:13.057Z,100.00
2022-07-29T17:44:17.462Z,100.00
2022-07-29T17:46:22.142Z,100.00
2022-07-29T17:48:26.044Z,100.00
2022-07-29T17:50:29.799Z,100.00
2022-07-29T17:52:33.655Z,100.00
2022-07-29T17:54:38.219Z,100.00
2022-07-29T17:56:44.521Z,100.00
2022-07-29T17:58:48.600Z,100.00
2022-07-29T18:00:52.835Z,100.00
2022-07-29T18:02:56.850Z,100.00
2022-07-29T18:05:02.598Z,100.00
2022-07-29T18:07:06.352Z,100.00
2022-07-29T18:09:10.632Z,100.00
2022-07-29T18:11:15.510Z,100.00
2022-07-29T18:13:19.754Z,100.00
2022-07-29T18:15:23.959Z,100.00
2022-07-29T18:17:48.401Z,100.00
2022-07-29T18:19:54.267Z,100.00
2022-07-29T18:22:03.201Z,100.00
2022-07-29T18:24:09.652Z,100.00
2022-07-29T18:26:18.064Z,100.00
2022-07-29T18:28:22.305Z,100.00
2022-07-29T18:30:26.081Z,100.00
2022-07-29T18:32:30.137Z,100.00
2022-07-29T18:34:34.153Z,100.00
2022-07-29T18:36:37.757Z,100.00
2022-07-29T18:38:42.633Z,100.00
2022-07-29T18:40:46.629Z,100.00
2022-07-29T18:42:50.655Z,100.00
2022-07-29T18:44:54.840Z,100.00
2022-07-29T18:46:59.221Z,100.00
2022-07-29T18:49:04.739Z,100.00
2022-07-29T18:51:09.258Z,100.00
2022-07-29T18:53:13.932Z,100.00
2022-07-29T18:55:17.884Z,100.00
2022-07-29T18:57:53.767Z,100.00
2022-07-29T18:59:48.301Z,100.00
2022-07-29T19:01:53.099Z,100.00
2022-07-29T19:03:56.881Z,100.00
2022-07-29T19:06:00.804Z,100.00
2022-07-29T19:08:04.752Z,100.00
2022-07-29T19:10:08.909Z,100.00
2022-07-29T19:12:12.931Z,100.00
2022-07-29T19:14:19.933Z,100.00
2022-07-29T19:16:26.110Z,100.00
2022-07-29T19:18:30.546Z,100.00
2022-07-29T19:20:34.894Z,100.00
2022-07-29T19:22:39.165Z,100.00
2022-07-29T19:24:43.561Z,100.00
2022-07-29T19:26:50.329Z,100.00
2022-07-29T19:28:54.167Z,100.00
2022-07-29T19:31:00.283Z,100.00
2022-07-29T19:33:04.126Z,100.00
2022-07-29T19:35:29.222Z,100.00
2022-07-29T19:37:32.909Z,100.00
2022-07-29T19:39:36.667Z,100.00
2022-07-29T19:41:40.688Z,100.00
2022-07-29T19:43:51.500Z,100.00
2022-07-29T19:45:56.760Z,100.00
2022-07-29T19:48:01.675Z,100.00
2022-07-29T19:50:06.211Z,100.00
2022-07-29T19:52:09.820Z,100.00
2022-07-29T19:54:14.022Z,100.00
2022-07-29T19:56:18.201Z,100.00
2022-07-29T19:58:23.173Z,100.00
2022-07-29T20:00:32.421Z,100.00
2022-07-29T20:02:36.077Z,100.00
2022-07-29T20:04:40.017Z,100.00
2022-07-29T20:06:43.939Z,100.00
2022-07-29T20:08:48.121Z,100.00
2022-07-29T20:10:51.791Z,100.00
2022-07-29T20:12:55.495Z,100.00
2022-07-29T20:14:59.893Z,100.00
2022-07-29T20:17:04.307Z,100.00
2022-07-29T20:19:08.638Z,100.00
2022-07-29T20:21:12.548Z,100.00
2022-07-29T20:23:17.618Z,100.00
2022-07-29T20:25:21.625Z,100.00
2022-07-29T20:27:26.011Z,100.00
2022-07-29T20:29:29.783Z,100.00
2022-07-29T20:31:33.824Z,100.00
2022-07-29T20:33:38.105Z,100.00
2022-07-29T20:35:42.239Z,100.00
2022-07-29T20:37:55.550Z,100.00
2022-07-29T20:40:00.323Z,100.00
2022-07-29T20:42:04.157Z,100.00
2022-07-29T20:44:08.328Z,100.00
2022-07-29T20:46:15.126Z,100.00
2022-07-29T20:48:24.973Z,100.00
2022-07-29T20:50:29.679Z,100.00
2022-07-29T20:52:33.459Z,100.00
2022-07-29T20:54:37.276Z,100.00
2022-07-29T20:56:42.652Z,100.00
2022-07-29T20:58:48.528Z,100.00
2022-07-29T21:00:52.781Z,100.00
2022-07-29T21:02:56.686Z,100.00
2022-07-29T21:05:00.668Z,100.00
2022-07-29T21:07:05.177Z,100.00
2022-07-29T21:09:09.088Z,100.00
2022-07-29T21:11:18.243Z,100.00
2022-07-29T21:13:42.142Z,100.00
2022-07-29T21:15:49.607Z,100.00
2022-07-29T21:18:01.366Z,100.00
2022-07-29T21:20:06.228Z,100.00
2022-07-29T21:22:10.287Z,100.00
2022-07-29T21:24:14.173Z,100.00
2022-07-29T21:26:18.065Z,100.00
2022-07-29T21:28:28.277Z,100.00
2022-07-29T21:30:31.927Z,100.00
2022-07-29T21:32:35.637Z,100.00
2022-07-29T21:34:39.486Z,100.00
2022-07-29T21:36:48.942Z,100.00
2022-07-29T21:38:55.979Z,100.00
2022-07-29T21:40:59.898Z,100.00
2022-07-29T21:43:04.061Z,100.00
2022-07-29T21:45:08.171Z,100.00
2022-07-29T21:47:16.271Z,100.00
2022-07-29T21:49:20.453Z,100.00
2022-07-29T21:51:26.886Z,100.00
2022-07-29T21:53:30.856Z,100.00
2022-07-29T21:55:34.553Z,100.00
2022-07-29T21:57:38.508Z,100.00
2022-07-29T21:59:42.753Z,100.00
2022-07-29T22:01:46.501Z,100.00
2022-07-29T22:03:51.813Z,100.00
2022-07-29T22:05:55.741Z,100.00
2022-07-29T22:08:00.152Z,100.00
2022-07-29T22:10:06.815Z,100.00
2022-07-29T22:12:10.534Z,100.00
2022-07-29T22:14:16.018Z,100.00
2022-07-29T22:16:20.043Z,100.00
2022-07-29T22:18:23.906Z,100.00
2022-07-29T22:20:28.162Z,100.00
2022-07-29T22:22:34.491Z,100.00
2022-07-29T22:24:38.922Z,100.00
2022-07-29T22:26:43.241Z,100.00
2022-07-29T22:28:47.309Z,100.00
2022-07-29T22:30:51.428Z,100.00
2022-07-29T22:32:55.586Z,100.00
2022-07-29T22:34:59.990Z,100.00
2022-07-29T22:37:04.132Z,100.00
2022-07-29T22:39:08.421Z,100.00
2022-07-29T22:41:12.145Z,100.00
2022-07-29T22:43:19.341Z,100.00
2022-07-29T22:45:23.237Z,100.00
2022-07-29T22:47:46.022Z,100.00
2022-07-29T22:49:51.512Z,100.00
2022-07-29T22:51:55.573Z,100.00
2022-07-29T22:53:59.383Z,100.00
2022-07-29T22:56:03.121Z,100.00
2022-07-29T22:58:06.983Z,100.00
2022-07-29T23:00:11.413Z,100.00
2022-07-29T23:02:15.647Z,100.00
2022-07-29T23:04:24.615Z,100.00
2022-07-29T23:06:28.659Z,100.00
2022-07-29T23:08:32.846Z,100.00
2022-07-29T23:10:36.846Z,100.00
2022-07-29T23:12:40.560Z,100.00
2022-07-29T23:14:45.015Z,100.00
2022-07-29T23:16:49.336Z,100.00
2022-07-29T23:18:54.161Z,100.00
2022-07-29T23:20:58.225Z,100.00
2022-07-29T23:23:02.004Z,100.00
2022-07-29T23:25:07.586Z,100.00
2022-07-29T23:27:12.074Z,100.00
2022-07-29T23:29:16.044Z,100.00
2022-07-29T23:31:20.002Z,100.00
2022-07-29T23:33:23.795Z,100.00
2022-07-29T23:35:27.936Z,100.00
2022-07-29T23:37:31.876Z,100.00
2022-07-29T23:39:35.819Z,100.00
2022-07-29T23:41:39.667Z,100.00
2022-07-29T23:43:43.824Z,100.00
2022-07-29T23:45:48.540Z,100.00
2022-07-29T23:47:53.820Z,100.00
2022-07-29T23:49:57.991Z,100.00
2022-07-29T23:52:02.912Z,100.00
2022-07-29T23:54:07.160Z,100.00
2022-07-29T23:56:11.051Z,100.00
2022-07-29T23:58:14.710Z,100.00
